sensor_id;sensor_type;location;lat;lon;timestamp;pressure;altitude;pressure_sealevel;temperature;humidity
55373;BME280;41249;47.838;16.490;2023-03-21T00:00:38;99458.78;;;6.11;57.50
55373;BME280;41249;47.838;16.490;2023-03-21T00:03:05;99457.13;;;6.06;57.29
55373;BME280;41249;47.838;16.490;2023-03-21T00:05:32;99460.97;;;6.02;57.69
55373;BME280;41249;47.838;16.490;2023-03-21T00:07:58;99464.06;;;6.00;57.58
55373;BME280;41249;47.838;16.490;2023-03-21T00:10:27;99451.47;;;5.99;57.24
55373;BME280;41249;47.838;16.490;2023-03-21T00:13:06;99463.22;;;5.96;57.76
55373;BME280;41249;47.838;16.490;2023-03-21T00:15:33;99465.06;;;5.92;57.59
55373;BME280;41249;47.838;16.490;2023-03-21T00:18:16;99459.50;;;5.88;58.66
55373;BME280;41249;47.838;16.490;2023-03-21T00:20:43;99460.66;;;5.87;57.93
55373;BME280;41249;47.838;16.490;2023-03-21T00:23:12;99453.06;;;5.81;58.07
55373;BME280;41249;47.838;16.490;2023-03-21T00:25:39;99455.81;;;5.81;57.80
55373;BME280;41249;47.838;16.490;2023-03-21T00:28:06;99458.13;;;5.79;58.13
55373;BME280;41249;47.838;16.490;2023-03-21T00:30:34;99453.78;;;5.78;58.07
55373;BME280;41249;47.838;16.490;2023-03-21T00:33:00;99454.63;;;5.82;57.83
55373;BME280;41249;47.838;16.490;2023-03-21T00:35:45;99444.84;;;5.84;57.45
55373;BME280;41249;47.838;16.490;2023-03-21T00:38:28;99449.50;;;5.80;57.89
55373;BME280;41249;47.838;16.490;2023-03-21T00:40:54;99440.72;;;5.75;57.43
55373;BME280;41249;47.838;16.490;2023-03-21T00:43:25;99447.75;;;5.72;57.52
55373;BME280;41249;47.838;16.490;2023-03-21T00:45:57;99446.09;;;5.68;57.59
55373;BME280;41249;47.838;16.490;2023-03-21T00:48:25;99438.53;;;5.65;57.39
55373;BME280;41249;47.838;16.490;2023-03-21T00:50:53;99436.53;;;5.62;57.72
55373;BME280;41249;47.838;16.490;2023-03-21T00:53:20;99444.31;;;5.60;57.67
55373;BME280;41249;47.838;16.490;2023-03-21T00:55:47;99439.56;;;5.57;57.84
55373;BME280;41249;47.838;16.490;2023-03-21T00:58:15;99435.91;;;5.53;58.01
55373;BME280;41249;47.838;16.490;2023-03-21T01:00:42;99439.38;;;5.50;57.93
55373;BME280;41249;47.838;16.490;2023-03-21T01:03:11;99436.63;;;5.50;57.83
55373;BME280;41249;47.838;16.490;2023-03-21T01:05:50;99442.59;;;5.52;57.70
55373;BME280;41249;47.838;16.490;2023-03-21T01:08:36;99434.63;;;5.47;58.04
55373;BME280;41249;47.838;16.490;2023-03-21T01:11:21;99437.81;;;5.49;58.25
55373;BME280;41249;47.838;16.490;2023-03-21T01:13:48;99433.09;;;5.49;57.61
55373;BME280;41249;47.838;16.490;2023-03-21T01:16:30;99432.75;;;5.51;57.65
55373;BME280;41249;47.838;16.490;2023-03-21T01:18:57;99427.16;;;5.47;57.86
55373;BME280;41249;47.838;16.490;2023-03-21T01:21:25;99424.38;;;5.47;58.36
55373;BME280;41249;47.838;16.490;2023-03-21T01:23:51;99426.81;;;5.49;58.25
55373;BME280;41249;47.838;16.490;2023-03-21T01:26:18;99416.22;;;5.51;57.84
55373;BME280;41249;47.838;16.490;2023-03-21T01:28:45;99425.19;;;5.48;58.00
55373;BME280;41249;47.838;16.490;2023-03-21T01:31:13;99423.63;;;5.47;58.28
55373;BME280;41249;47.838;16.490;2023-03-21T01:33:41;99415.34;;;5.47;58.36
55373;BME280;41249;47.838;16.490;2023-03-21T01:36:14;99409.38;;;5.45;57.87
55373;BME280;41249;47.838;16.490;2023-03-21T01:38:42;99405.34;;;5.39;58.47
55373;BME280;41249;47.838;16.490;2023-03-21T01:41:34;99410.75;;;5.35;58.88
55373;BME280;41249;47.838;16.490;2023-03-21T01:44:13;99405.75;;;5.21;58.90
55373;BME280;41249;47.838;16.490;2023-03-21T01:46:45;99398.50;;;5.13;59.46
55373;BME280;41249;47.838;16.490;2023-03-21T01:49:34;99405.31;;;5.04;59.32
55373;BME280;41249;47.838;16.490;2023-03-21T01:52:06;99404.09;;;5.01;59.10
55373;BME280;41249;47.838;16.490;2023-03-21T01:54:42;99415.78;;;4.98;59.38
55373;BME280;41249;47.838;16.490;2023-03-21T01:57:17;99404.69;;;4.95;59.77
55373;BME280;41249;47.838;16.490;2023-03-21T01:59:50;99406.22;;;4.92;59.17
55373;BME280;41249;47.838;16.490;2023-03-21T02:02:21;99400.72;;;4.92;59.30
55373;BME280;41249;47.838;16.490;2023-03-21T02:04:50;99397.91;;;4.89;59.72
55373;BME280;41249;47.838;16.490;2023-03-21T02:07:26;99402.59;;;4.88;59.46
55373;BME280;41249;47.838;16.490;2023-03-21T02:09:55;99402.16;;;4.86;59.61
55373;BME280;41249;47.838;16.490;2023-03-21T02:12:24;99398.53;;;4.82;60.06
55373;BME280;41249;47.838;16.490;2023-03-21T02:14:52;99402.06;;;4.83;60.68
55373;BME280;41249;47.838;16.490;2023-03-21T02:17:42;99395.25;;;4.77;60.75
55373;BME280;41249;47.838;16.490;2023-03-21T02:23:09;99406.00;;;4.66;60.87
55373;BME280;41249;47.838;16.490;2023-03-21T02:28:27;99394.72;;;4.55;61.55
55373;BME280;41249;47.838;16.490;2023-03-21T02:34:19;99395.78;;;4.51;61.96
55373;BME280;41249;47.838;16.490;2023-03-21T02:37:02;99395.34;;;4.49;62.43
55373;BME280;41249;47.838;16.490;2023-03-21T02:39:41;99399.94;;;4.45;61.48
55373;BME280;41249;47.838;16.490;2023-03-21T02:42:23;99398.28;;;4.25;61.36
55373;BME280;41249;47.838;16.490;2023-03-21T02:45:01;99398.16;;;4.05;62.28
55373;BME280;41249;47.838;16.490;2023-03-21T02:47:40;99393.84;;;3.92;62.76
55373;BME280;41249;47.838;16.490;2023-03-21T02:50:15;99395.66;;;4.00;62.94
55373;BME280;41249;47.838;16.490;2023-03-21T02:52:46;99392.47;;;3.98;62.44
55373;BME280;41249;47.838;16.490;2023-03-21T02:55:17;99388.91;;;3.82;62.22
55373;BME280;41249;47.838;16.490;2023-03-21T02:57:46;99388.84;;;3.67;63.16
55373;BME280;41249;47.838;16.490;2023-03-21T03:00:17;99391.69;;;3.70;62.66
55373;BME280;41249;47.838;16.490;2023-03-21T03:02:45;99376.00;;;3.71;63.67
55373;BME280;41249;47.838;16.490;2023-03-21T03:05:21;99385.75;;;3.68;63.44
55373;BME280;41249;47.838;16.490;2023-03-21T03:11:05;99381.00;;;3.81;63.32
55373;BME280;41249;47.838;16.490;2023-03-21T03:17:16;99380.28;;;3.28;64.11
55373;BME280;41249;47.838;16.490;2023-03-21T03:21:04;99373.22;;;3.03;64.83
55373;BME280;41249;47.838;16.490;2023-03-21T03:25:52;99372.13;;;2.68;65.50
55373;BME280;41249;47.838;16.490;2023-03-21T03:28:25;99365.84;;;2.67;65.87
55373;BME280;41249;47.838;16.490;2023-03-21T03:30:55;99367.44;;;2.68;65.98
55373;BME280;41249;47.838;16.490;2023-03-21T03:33:37;99367.91;;;2.58;66.27
55373;BME280;41249;47.838;16.490;2023-03-21T03:36:08;99367.66;;;2.63;66.23
55373;BME280;41249;47.838;16.490;2023-03-21T03:38:45;99374.16;;;2.83;65.66
55373;BME280;41249;47.838;16.490;2023-03-21T03:41:18;99366.69;;;3.20;65.88
55373;BME280;41249;47.838;16.490;2023-03-21T03:43:48;99365.22;;;3.50;66.11
55373;BME280;41249;47.838;16.490;2023-03-21T03:48:55;99363.38;;;3.82;64.24
55373;BME280;41249;47.838;16.490;2023-03-21T03:54:23;99370.38;;;3.95;64.32
55373;BME280;41249;47.838;16.490;2023-03-21T03:56:51;99369.81;;;4.33;63.91
55373;BME280;41249;47.838;16.490;2023-03-21T03:59:18;99378.06;;;4.64;63.37
55373;BME280;41249;47.838;16.490;2023-03-21T04:01:47;99378.66;;;4.73;63.77
55373;BME280;41249;47.838;16.490;2023-03-21T04:04:14;99375.03;;;4.85;63.24
55373;BME280;41249;47.838;16.490;2023-03-21T04:06:43;99373.66;;;4.94;62.07
55373;BME280;41249;47.838;16.490;2023-03-21T04:09:11;99374.53;;;4.98;61.69
55373;BME280;41249;47.838;16.490;2023-03-21T04:11:48;99379.91;;;5.10;61.62
55373;BME280;41249;47.838;16.490;2023-03-21T04:14:15;99377.72;;;5.16;62.47
55373;BME280;41249;47.838;16.490;2023-03-21T04:16:42;99380.09;;;5.17;61.72
55373;BME280;41249;47.838;16.490;2023-03-21T04:19:08;99379.75;;;5.19;61.31
55373;BME280;41249;47.838;16.490;2023-03-21T04:21:35;99383.03;;;5.24;60.81
55373;BME280;41249;47.838;16.490;2023-03-21T04:24:02;99383.88;;;5.28;60.69
55373;BME280;41249;47.838;16.490;2023-03-21T04:26:28;99388.59;;;5.28;60.53
55373;BME280;41249;47.838;16.490;2023-03-21T04:28:59;99389.09;;;5.33;60.61
55373;BME280;41249;47.838;16.490;2023-03-21T04:31:29;99393.44;;;5.34;60.62
55373;BME280;41249;47.838;16.490;2023-03-21T04:33:57;99390.34;;;5.36;60.28
55373;BME280;41249;47.838;16.490;2023-03-21T04:36:25;99391.22;;;5.40;60.78
55373;BME280;41249;47.838;16.490;2023-03-21T04:39:05;99396.72;;;5.40;60.23
55373;BME280;41249;47.838;16.490;2023-03-21T04:41:42;99407.81;;;5.44;60.25
55373;BME280;41249;47.838;16.490;2023-03-21T04:44:10;99400.84;;;5.50;60.34
55373;BME280;41249;47.838;16.490;2023-03-21T04:46:38;99402.03;;;5.49;60.42
55373;BME280;41249;47.838;16.490;2023-03-21T04:49:05;99405.63;;;5.53;59.91
55373;BME280;41249;47.838;16.490;2023-03-21T04:51:35;99403.41;;;5.58;60.08
55373;BME280;41249;47.838;16.490;2023-03-21T04:54:02;99401.06;;;5.60;59.79
55373;BME280;41249;47.838;16.490;2023-03-21T04:56:31;99401.50;;;5.62;59.36
55373;BME280;41249;47.838;16.490;2023-03-21T04:59:03;99405.94;;;5.67;59.66
55373;BME280;41249;47.838;16.490;2023-03-21T05:01:31;99406.81;;;5.71;59.30
55373;BME280;41249;47.838;16.490;2023-03-21T05:03:59;99414.78;;;5.76;59.59
55373;BME280;41249;47.838;16.490;2023-03-21T05:06:27;99413.31;;;5.82;59.49
55373;BME280;41249;47.838;16.490;2023-03-21T05:08:55;99410.25;;;5.87;58.96
55373;BME280;41249;47.838;16.490;2023-03-21T05:11:26;99413.47;;;5.89;59.11
55373;BME280;41249;47.838;16.490;2023-03-21T05:13:53;99414.25;;;5.89;59.71
55373;BME280;41249;47.838;16.490;2023-03-21T05:16:20;99412.81;;;5.95;59.12
55373;BME280;41249;47.838;16.490;2023-03-21T05:18:53;99410.56;;;6.01;59.37
55373;BME280;41249;47.838;16.490;2023-03-21T05:21:22;99420.09;;;6.07;58.87
55373;BME280;41249;47.838;16.490;2023-03-21T05:23:48;99419.75;;;6.09;59.28
55373;BME280;41249;47.838;16.490;2023-03-21T05:26:23;99411.06;;;6.07;58.95
55373;BME280;41249;47.838;16.490;2023-03-21T05:28:50;99417.84;;;6.13;58.59
55373;BME280;41249;47.838;16.490;2023-03-21T05:31:17;99415.19;;;6.16;58.81
55373;BME280;41249;47.838;16.490;2023-03-21T05:33:45;99422.56;;;6.12;58.96
55373;BME280;41249;47.838;16.490;2023-03-21T05:36:12;99415.81;;;6.10;58.90
55373;BME280;41249;47.838;16.490;2023-03-21T05:38:40;99412.72;;;6.11;58.81
55373;BME280;41249;47.838;16.490;2023-03-21T05:41:12;99410.81;;;6.15;58.79
55373;BME280;41249;47.838;16.490;2023-03-21T05:43:39;99414.28;;;6.12;58.93
55373;BME280;41249;47.838;16.490;2023-03-21T05:46:06;99414.16;;;6.05;59.29
55373;BME280;41249;47.838;16.490;2023-03-21T05:48:34;99420.56;;;6.09;59.41
55373;BME280;41249;47.838;16.490;2023-03-21T05:51:01;99420.91;;;6.08;59.19
55373;BME280;41249;47.838;16.490;2023-03-21T05:53:28;99426.38;;;6.04;59.10
55373;BME280;41249;47.838;16.490;2023-03-21T05:55:55;99424.03;;;6.06;59.24
55373;BME280;41249;47.838;16.490;2023-03-21T05:58:21;99429.47;;;6.02;59.48
55373;BME280;41249;47.838;16.490;2023-03-21T06:00:48;99428.66;;;6.02;59.05
55373;BME280;41249;47.838;16.490;2023-03-21T06:03:15;99433.59;;;6.12;59.40
55373;BME280;41249;47.838;16.490;2023-03-21T06:05:41;99432.06;;;6.15;59.53
55373;BME280;41249;47.838;16.490;2023-03-21T06:08:08;99432.09;;;6.37;58.72
55373;BME280;41249;47.838;16.490;2023-03-21T06:10:34;99432.72;;;6.69;58.18
55373;BME280;41249;47.838;16.490;2023-03-21T06:13:01;99427.91;;;6.89;57.72
55373;BME280;41249;47.838;16.490;2023-03-21T06:15:28;99430.19;;;7.09;57.22
55373;BME280;41249;47.838;16.490;2023-03-21T06:17:54;99430.88;;;7.29;57.04
55373;BME280;41249;47.838;16.490;2023-03-21T06:20:21;99429.25;;;7.54;55.69
55373;BME280;41249;47.838;16.490;2023-03-21T06:22:48;99418.22;;;7.87;55.56
55373;BME280;41249;47.838;16.490;2023-03-21T06:25:15;99424.72;;;8.02;55.47
55373;BME280;41249;47.838;16.490;2023-03-21T06:27:42;99428.97;;;8.26;54.94
55373;BME280;41249;47.838;16.490;2023-03-21T06:30:09;99432.28;;;8.42;54.10
55373;BME280;41249;47.838;16.490;2023-03-21T06:32:36;99426.13;;;8.59;53.95
55373;BME280;41249;47.838;16.490;2023-03-21T06:35:02;99430.31;;;8.83;53.39
55373;BME280;41249;47.838;16.490;2023-03-21T06:37:30;99439.81;;;8.85;52.91
55373;BME280;41249;47.838;16.490;2023-03-21T06:39:57;99442.22;;;8.90;52.82
55373;BME280;41249;47.838;16.490;2023-03-21T06:42:25;99443.94;;;9.09;52.84
55373;BME280;41249;47.838;16.490;2023-03-21T06:44:51;99447.19;;;9.18;53.08
55373;BME280;41249;47.838;16.490;2023-03-21T06:47:18;99446.06;;;8.79;53.29
55373;BME280;41249;47.838;16.490;2023-03-21T06:49:45;99450.97;;;8.52;53.46
55373;BME280;41249;47.838;16.490;2023-03-21T06:52:11;99448.25;;;8.55;53.36
55373;BME280;41249;47.838;16.490;2023-03-21T06:54:38;99443.25;;;8.31;54.23
55373;BME280;41249;47.838;16.490;2023-03-21T06:57:05;99451.81;;;8.19;55.16
55373;BME280;41249;47.838;16.490;2023-03-21T06:59:32;99443.97;;;8.25;54.32
55373;BME280;41249;47.838;16.490;2023-03-21T07:01:59;99435.88;;;8.09;54.26
55373;BME280;41249;47.838;16.490;2023-03-21T07:04:25;99447.81;;;8.17;55.11
55373;BME280;41249;47.838;16.490;2023-03-21T07:06:53;99437.69;;;8.28;54.14
55373;BME280;41249;47.838;16.490;2023-03-21T07:09:20;99438.22;;;8.40;53.59
55373;BME280;41249;47.838;16.490;2023-03-21T07:11:50;99442.25;;;8.50;53.47
55373;BME280;41249;47.838;16.490;2023-03-21T07:14:18;99437.88;;;8.49;53.48
55373;BME280;41249;47.838;16.490;2023-03-21T07:16:45;99434.94;;;8.72;52.83
55373;BME280;41249;47.838;16.490;2023-03-21T07:19:12;99452.75;;;8.74;52.75
55373;BME280;41249;47.838;16.490;2023-03-21T07:21:39;99435.69;;;8.65;53.28
55373;BME280;41249;47.838;16.490;2023-03-21T07:24:06;99440.81;;;8.67;52.79
55373;BME280;41249;47.838;16.490;2023-03-21T07:26:32;99446.81;;;8.72;52.25
55373;BME280;41249;47.838;16.490;2023-03-21T07:28:59;99447.63;;;8.76;52.38
55373;BME280;41249;47.838;16.490;2023-03-21T07:31:26;99443.75;;;8.84;52.22
55373;BME280;41249;47.838;16.490;2023-03-21T07:33:53;99441.47;;;8.97;52.04
55373;BME280;41249;47.838;16.490;2023-03-21T07:36:19;99444.66;;;8.99;52.05
55373;BME280;41249;47.838;16.490;2023-03-21T07:38:46;99446.34;;;9.10;52.00
55373;BME280;41249;47.838;16.490;2023-03-21T07:41:13;99444.84;;;9.23;51.93
55373;BME280;41249;47.838;16.490;2023-03-21T07:43:41;99447.56;;;9.16;51.65
55373;BME280;41249;47.838;16.490;2023-03-21T07:46:08;99442.88;;;9.24;51.98
55373;BME280;41249;47.838;16.490;2023-03-21T07:48:34;99425.56;;;9.34;51.37
55373;BME280;41249;47.838;16.490;2023-03-21T07:51:02;99437.84;;;9.37;51.34
55373;BME280;41249;47.838;16.490;2023-03-21T07:53:31;99437.09;;;9.47;51.38
55373;BME280;41249;47.838;16.490;2023-03-21T07:55:58;99444.28;;;9.55;50.77
55373;BME280;41249;47.838;16.490;2023-03-21T07:58:25;99447.06;;;9.58;50.30
55373;BME280;41249;47.838;16.490;2023-03-21T08:00:52;99435.63;;;9.67;49.98
55373;BME280;41249;47.838;16.490;2023-03-21T08:03:21;99447.59;;;9.78;49.23
55373;BME280;41249;47.838;16.490;2023-03-21T08:05:49;99442.06;;;9.89;48.79
55373;BME280;41249;47.838;16.490;2023-03-21T08:08:16;99439.28;;;9.89;48.43
55373;BME280;41249;47.838;16.490;2023-03-21T08:10:43;99450.84;;;10.01;48.11
55373;BME280;41249;47.838;16.490;2023-03-21T08:13:10;99439.06;;;10.25;47.43
55373;BME280;41249;47.838;16.490;2023-03-21T08:15:37;99444.53;;;10.08;46.91
55373;BME280;41249;47.838;16.490;2023-03-21T08:18:05;99437.44;;;10.24;47.10
55373;BME280;41249;47.838;16.490;2023-03-21T08:20:32;99436.69;;;10.34;46.67
55373;BME280;41249;47.838;16.490;2023-03-21T08:22:58;99439.91;;;10.51;46.80
55373;BME280;41249;47.838;16.490;2023-03-21T08:25:25;99434.38;;;10.58;45.86
55373;BME280;41249;47.838;16.490;2023-03-21T08:27:51;99440.72;;;10.76;45.66
55373;BME280;41249;47.838;16.490;2023-03-21T08:30:21;99444.28;;;10.66;45.41
55373;BME280;41249;47.838;16.490;2023-03-21T08:32:48;99435.16;;;10.55;44.89
55373;BME280;41249;47.838;16.490;2023-03-21T08:35:16;99431.22;;;10.63;45.17
55373;BME280;41249;47.838;16.490;2023-03-21T08:37:44;99439.97;;;11.07;44.93
55373;BME280;41249;47.838;16.490;2023-03-21T08:40:14;99439.16;;;11.10;44.50
55373;BME280;41249;47.838;16.490;2023-03-21T08:42:42;99423.28;;;11.18;44.31
55373;BME280;41249;47.838;16.490;2023-03-21T08:45:10;99426.38;;;11.51;44.27
55373;BME280;41249;47.838;16.490;2023-03-21T08:47:37;99428.44;;;11.16;43.75
55373;BME280;41249;47.838;16.490;2023-03-21T08:50:04;99434.00;;;11.19;44.46
55373;BME280;41249;47.838;16.490;2023-03-21T08:52:32;99440.75;;;10.79;44.49
55373;BME280;41249;47.838;16.490;2023-03-21T08:54:59;99422.50;;;10.89;44.66
55373;BME280;41249;47.838;16.490;2023-03-21T08:57:28;99436.75;;;11.40;43.86
55373;BME280;41249;47.838;16.490;2023-03-21T08:59:55;99434.34;;;11.42;42.86
55373;BME280;41249;47.838;16.490;2023-03-21T09:02:22;99429.50;;;11.82;42.77
55373;BME280;41249;47.838;16.490;2023-03-21T09:04:49;99424.34;;;11.80;42.40
55373;BME280;41249;47.838;16.490;2023-03-21T09:07:18;99430.41;;;11.22;43.51
55373;BME280;41249;47.838;16.490;2023-03-21T09:09:45;99428.84;;;10.96;43.73
55373;BME280;41249;47.838;16.490;2023-03-21T09:12:23;99421.69;;;11.17;43.06
55373;BME280;41249;47.838;16.490;2023-03-21T09:14:50;99420.06;;;11.33;43.27
55373;BME280;41249;47.838;16.490;2023-03-21T09:17:18;99412.09;;;11.53;42.64
55373;BME280;41249;47.838;16.490;2023-03-21T09:19:46;99420.44;;;11.49;42.60
55373;BME280;41249;47.838;16.490;2023-03-21T09:22:15;99422.84;;;11.33;43.01
55373;BME280;41249;47.838;16.490;2023-03-21T09:24:46;99435.97;;;11.33;43.14
55373;BME280;41249;47.838;16.490;2023-03-21T09:27:15;99426.00;;;11.39;43.07
55373;BME280;41249;47.838;16.490;2023-03-21T09:29:50;99424.84;;;11.08;43.66
55373;BME280;41249;47.838;16.490;2023-03-21T09:32:17;99423.28;;;11.03;44.04
55373;BME280;41249;47.838;16.490;2023-03-21T09:34:44;99426.44;;;11.23;43.76
55373;BME280;41249;47.838;16.490;2023-03-21T09:37:11;99420.81;;;11.58;43.07
55373;BME280;41249;47.838;16.490;2023-03-21T09:39:39;99422.41;;;11.66;42.79
55373;BME280;41249;47.838;16.490;2023-03-21T09:42:12;99418.38;;;11.82;42.13
55373;BME280;41249;47.838;16.490;2023-03-21T09:44:55;99419.63;;;11.49;42.31
55373;BME280;41249;47.838;16.490;2023-03-21T09:47:30;99419.28;;;11.40;42.54
55373;BME280;41249;47.838;16.490;2023-03-21T09:50:00;99412.16;;;11.10;42.35
55373;BME280;41249;47.838;16.490;2023-03-21T09:52:54;99411.41;;;10.92;42.44
55373;BME280;41249;47.838;16.490;2023-03-21T09:55:24;99416.53;;;10.62;43.50
55373;BME280;41249;47.838;16.490;2023-03-21T10:00:28;99411.28;;;10.15;42.35
55373;BME280;41249;47.838;16.490;2023-03-21T10:02:59;99404.09;;;10.07;43.93
55373;BME280;41249;47.838;16.490;2023-03-21T10:05:29;99413.19;;;9.97;43.55
55373;BME280;41249;47.838;16.490;2023-03-21T10:13:13;99393.78;;;9.93;43.98
55373;BME280;41249;47.838;16.490;2023-03-21T10:15:41;99390.63;;;9.98;43.50
55373;BME280;41249;47.838;16.490;2023-03-21T10:18:21;99387.88;;;10.12;43.76
55373;BME280;41249;47.838;16.490;2023-03-21T10:20:50;99395.81;;;10.17;43.44
55373;BME280;41249;47.838;16.490;2023-03-21T10:23:20;99388.31;;;10.39;43.03
55373;BME280;41249;47.838;16.490;2023-03-21T10:25:58;99385.56;;;10.35;43.15
55373;BME280;41249;47.838;16.490;2023-03-21T10:28:33;99384.00;;;10.45;43.35
55373;BME280;41249;47.838;16.490;2023-03-21T10:31:20;99382.44;;;10.69;43.39
55373;BME280;41249;47.838;16.490;2023-03-21T10:33:52;99389.56;;;10.77;42.78
55373;BME280;41249;47.838;16.490;2023-03-21T10:36:22;99379.66;;;10.83;42.51
55373;BME280;41249;47.838;16.490;2023-03-21T10:38:59;99387.56;;;11.05;41.99
55373;BME280;41249;47.838;16.490;2023-03-21T10:41:27;99377.16;;;11.62;42.03
55373;BME280;41249;47.838;16.490;2023-03-21T10:46:34;99383.88;;;12.37;40.02
55373;BME280;41249;47.838;16.490;2023-03-21T10:49:02;99381.94;;;12.31;39.70
55373;BME280;41249;47.838;16.490;2023-03-21T10:51:35;99378.25;;;11.75;39.89
55373;BME280;41249;47.838;16.490;2023-03-21T10:54:07;99370.38;;;11.63;39.74
55373;BME280;41249;47.838;16.490;2023-03-21T10:56:43;99379.53;;;11.53;39.75
55373;BME280;41249;47.838;16.490;2023-03-21T10:59:17;99386.34;;;11.24;40.18
55373;BME280;41249;47.838;16.490;2023-03-21T11:01:51;99375.59;;;11.37;40.61
55373;BME280;41249;47.838;16.490;2023-03-21T11:04:23;99374.31;;;11.66;40.31
55373;BME280;41249;47.838;16.490;2023-03-21T11:07:01;99377.78;;;11.91;40.16
55373;BME280;41249;47.838;16.490;2023-03-21T11:09:47;99374.16;;;12.05;39.13
55373;BME280;41249;47.838;16.490;2023-03-21T11:12:27;99366.56;;;12.09;40.07
55373;BME280;41249;47.838;16.490;2023-03-21T11:14:54;99375.25;;;12.25;39.35
55373;BME280;41249;47.838;16.490;2023-03-21T11:17:29;99379.16;;;12.34;38.25
55373;BME280;41249;47.838;16.490;2023-03-21T11:19:59;99370.78;;;12.34;39.25
55373;BME280;41249;47.838;16.490;2023-03-21T11:22:29;99365.72;;;12.15;39.89
55373;BME280;41249;47.838;16.490;2023-03-21T11:24:58;99360.19;;;12.12;38.30
55373;BME280;41249;47.838;16.490;2023-03-21T11:27:28;99353.41;;;12.20;38.35
55373;BME280;41249;47.838;16.490;2023-03-21T11:29:56;99350.00;;;12.53;38.70
55373;BME280;41249;47.838;16.490;2023-03-21T11:32:36;99346.03;;;12.95;36.25
55373;BME280;41249;47.838;16.490;2023-03-21T11:37:37;99319.69;;;13.74;35.70
55373;BME280;41249;47.838;16.490;2023-03-21T11:40:07;99327.72;;;13.99;35.77
55373;BME280;41249;47.838;16.490;2023-03-21T11:42:45;99337.28;;;13.67;33.09
55373;BME280;41249;47.838;16.490;2023-03-21T11:45:19;99338.03;;;13.00;36.07
55373;BME280;41249;47.838;16.490;2023-03-21T11:47:47;99320.03;;;12.68;35.72
55373;BME280;41249;47.838;16.490;2023-03-21T11:53:01;99339.63;;;13.01;34.60
55373;BME280;41249;47.838;16.490;2023-03-21T11:55:59;99307.72;;;12.14;35.99
55373;BME280;41249;47.838;16.490;2023-03-21T12:04:12;99306.97;;;12.03;37.21
55373;BME280;41249;47.838;16.490;2023-03-21T12:06:53;99301.03;;;12.56;35.55
55373;BME280;41249;47.838;16.490;2023-03-21T12:09:35;99291.63;;;12.83;36.55
55373;BME280;41249;47.838;16.490;2023-03-21T12:12:20;99291.91;;;12.92;36.25
55373;BME280;41249;47.838;16.490;2023-03-21T12:25:52;99269.97;;;13.92;35.26
55373;BME280;41249;47.838;16.490;2023-03-21T12:41:59;99259.63;;;14.19;31.87
55373;BME280;41249;47.838;16.490;2023-03-21T12:44:33;99257.19;;;13.68;33.75
55373;BME280;41249;47.838;16.490;2023-03-21T12:47:09;99244.25;;;13.54;34.44
55373;BME280;41249;47.838;16.490;2023-03-21T12:49:41;99256.78;;;13.70;33.83
55373;BME280;41249;47.838;16.490;2023-03-21T12:52:14;99242.03;;;13.69;34.03
55373;BME280;41249;47.838;16.490;2023-03-21T12:57:22;99234.41;;;13.73;33.16
55373;BME280;41249;47.838;16.490;2023-03-21T13:02:40;99217.25;;;13.44;33.96
55373;BME280;41249;47.838;16.490;2023-03-21T13:07:49;99215.31;;;13.72;33.83
55373;BME280;41249;47.838;16.490;2023-03-21T13:10:19;99224.59;;;13.88;33.88
55373;BME280;41249;47.838;16.490;2023-03-21T13:20:52;99214.50;;;13.11;33.24
55373;BME280;41249;47.838;16.490;2023-03-21T13:23:21;99203.44;;;13.03;34.29
55373;BME280;41249;47.838;16.490;2023-03-21T13:25:50;99207.81;;;13.05;34.32
55373;BME280;41249;47.838;16.490;2023-03-21T13:28:21;99210.50;;;13.12;33.83
55373;BME280;41249;47.838;16.490;2023-03-21T13:30:51;99208.91;;;13.11;33.90
55373;BME280;41249;47.838;16.490;2023-03-21T13:33:24;99201.13;;;13.29;34.35
55373;BME280;41249;47.838;16.490;2023-03-21T13:35:59;99191.34;;;13.17;34.40
55373;BME280;41249;47.838;16.490;2023-03-21T13:38:33;99194.91;;;12.84;34.89
55373;BME280;41249;47.838;16.490;2023-03-21T13:41:12;99200.22;;;13.05;34.41
55373;BME280;41249;47.838;16.490;2023-03-21T13:43:41;99194.75;;;12.64;34.73
55373;BME280;41249;47.838;16.490;2023-03-21T13:54:00;99206.47;;;12.42;35.46
55373;BME280;41249;47.838;16.490;2023-03-21T13:56:28;99193.72;;;12.44;35.40
55373;BME280;41249;47.838;16.490;2023-03-21T13:59:00;99204.00;;;12.54;35.27
55373;BME280;41249;47.838;16.490;2023-03-21T14:01:40;99199.38;;;12.37;35.13
55373;BME280;41249;47.838;16.490;2023-03-21T14:04:15;99196.88;;;12.46;35.48
55373;BME280;41249;47.838;16.490;2023-03-21T14:09:45;99189.53;;;12.25;36.18
55373;BME280;41249;47.838;16.490;2023-03-21T14:12:16;99178.38;;;12.29;36.15
55373;BME280;41249;47.838;16.490;2023-03-21T14:17:49;99171.25;;;12.65;35.98
55373;BME280;41249;47.838;16.490;2023-03-21T14:20:25;99163.84;;;12.48;36.09
55373;BME280;41249;47.838;16.490;2023-03-21T14:22:52;99166.78;;;12.34;36.42
55373;BME280;41249;47.838;16.490;2023-03-21T14:25:21;99158.66;;;12.50;36.97
55373;BME280;41249;47.838;16.490;2023-03-21T14:27:54;99172.50;;;12.20;36.20
55373;BME280;41249;47.838;16.490;2023-03-21T14:30:36;99163.47;;;12.05;36.01
55373;BME280;41249;47.838;16.490;2023-03-21T14:33:15;99162.69;;;12.05;36.75
55373;BME280;41249;47.838;16.490;2023-03-21T14:35:46;99171.72;;;12.16;36.97
55373;BME280;41249;47.838;16.490;2023-03-21T14:38:31;99162.47;;;12.26;36.72
55373;BME280;41249;47.838;16.490;2023-03-21T14:40:58;99148.63;;;12.22;36.82
55373;BME280;41249;47.838;16.490;2023-03-21T14:43:25;99159.53;;;12.40;36.87
55373;BME280;41249;47.838;16.490;2023-03-21T14:45:54;99156.09;;;12.29;36.56
55373;BME280;41249;47.838;16.490;2023-03-21T14:48:33;99148.72;;;12.12;36.90
55373;BME280;41249;47.838;16.490;2023-03-21T14:51:03;99149.63;;;11.98;37.04
55373;BME280;41249;47.838;16.490;2023-03-21T14:53:34;99136.88;;;12.01;37.32